logo dgac
Martes 21 de Septiembre del 2021
Buscar por aerodromo o helipuerto
Ingrese nombre de aeródromo, localidad o designador OACI:

Aeródromo: General Freire (PUB) (SCIC)

Ubicación: Curicó, VII Región, Chile (34º 58' 00'' S, 71º 12' 59'' W) Ver ubicación en el mapa

Pistas

Orientación Dimensión Pendiente Superficie Resistencia APCH THR RWY PAPI
01/19 800 x 18 0,30 ASPH 7.500 kg No No No No
Horas de operación HJ
Elevación 220 m / 722 ft
Otra Información Adm : D.G.A.C.
Uso : PUB
Ubicado 3 km NE Curicó
TEL 752380353
email : aro.curico@dgac.gob.cl

Otra información ver AIP-Chile Volumen I AD 3.9-3.15-C

CCCM/FCCV Descargar
andera de Chile
Mapa de General Freire (PUB) (SCIC)

Último METAR

METAR SCIC 211000Z AUTO 00000KT 9999 NCD 04/04 Q1012

Último TAF

TAF SCIC 211100Z 2112/2124 18004KT CAVOK TX19/2118Z TN05/2112Z TEMPO 2112/2114 VRB02KT 4000 BR SCT005 BECMG 2116/2118 21011KT

Últimas fotos cámaras

Imagen aerodromo General Freire (PUB) (SCIC) Norte tomada el 21-09-2021 12:01:08 Imagen aerodromo General Freire (PUB) (SCIC) Sur tomada el 19-09-2021 10:37:52

Último NOTAM

C3995/21 NOTAMR C3880/21 Q)SCEZ/QOAAH/IV/B/A/000/999/3458S07113W005 A)SCIC B)2109041859 C)2109302200 D)MON-SUN BTN 1130-2200 E)AIS HR ATTN